地図

経路データ

SID SEASON NUMBER BASIN SUBBASIN NAME ISO_TIME NATURE LAT LON WMO_WIND WMO_PRES WMO_AGENCY TRACK_TYPE DIST2LAND LANDFALL IFLAG USA_AGENCY USA_ATCF_ID USA_LAT USA_LON USA_RECORD USA_STATUS USA_WIND USA_PRES USA_SSHS USA_R34_NE USA_R34_SE USA_R34_SW USA_R34_NW USA_R50_NE USA_R50_SE USA_R50_SW USA_R50_NW USA_R64_NE USA_R64_SE USA_R64_SW USA_R64_NW USA_POCI USA_ROCI USA_RMW USA_EYE TOKYO_LAT TOKYO_LON TOKYO_GRADE TOKYO_WIND TOKYO_PRES TOKYO_R50_DIR TOKYO_R50_LONG TOKYO_R50_SHORT TOKYO_R30_DIR TOKYO_R30_LONG TOKYO_R30_SHORT TOKYO_LAND CMA_LAT CMA_LON CMA_CAT CMA_WIND CMA_PRES HKO_LAT HKO_LON HKO_CAT HKO_WIND HKO_PRES NEWDELHI_LAT NEWDELHI_LON NEWDELHI_GRADE NEWDELHI_WIND NEWDELHI_PRES NEWDELHI_CI NEWDELHI_DP NEWDELHI_POCI REUNION_LAT REUNION_LON REUNION_TYPE REUNION_WIND REUNION_PRES REUNION_TNUM REUNION_CI REUNION_RMW REUNION_R34_NE REUNION_R34_SE REUNION_R34_SW REUNION_R34_NW REUNION_R50_NE REUNION_R50_SE REUNION_R50_SW REUNION_R50_NW REUNION_R64_NE REUNION_R64_SE REUNION_R64_SW REUNION_R64_NW BOM_LAT BOM_LON BOM_TYPE BOM_WIND BOM_PRES BOM_TNUM BOM_CI BOM_RMW BOM_R34_NE BOM_R34_SE BOM_R34_SW BOM_R34_NW BOM_R50_NE BOM_R50_SE BOM_R50_SW BOM_R50_NW BOM_R64_NE BOM_R64_SE BOM_R64_SW BOM_R64_NW BOM_ROCI BOM_POCI BOM_EYE BOM_POS_METHOD BOM_PRES_METHOD NADI_LAT NADI_LON NADI_CAT NADI_WIND NADI_PRES WELLINGTON_LAT WELLINGTON_LON WELLINGTON_WIND WELLINGTON_PRES DS824_LAT DS824_LON DS824_STAGE DS824_WIND DS824_PRES TD9636_LAT TD9636_LON TD9636_STAGE TD9636_WIND TD9636_PRES TD9635_LAT TD9635_LON TD9635_WIND TD9635_PRES TD9635_ROCI NEUMANN_LAT NEUMANN_LON NEUMANN_CLASS NEUMANN_WIND NEUMANN_PRES MLC_LAT MLC_LON MLC_CLASS MLC_WIND MLC_PRES USA_GUST BOM_GUST BOM_GUST_PER REUNION_GUST REUNION_GUST_PER USA_SEAHGT USA_SEARAD_NE USA_SEARAD_SE USA_SEARAD_SW USA_SEARAD_NW STORM_SPEED STORM_DIR
1992175N12269 1992 42 EP MM CELIA 1992-06-22 12:00:00 TS 11.5000 -91.5000 25 1007 hurdat_epa main 269 269 O_____________ hurdat_epa EP041992 11.5000 -91.5000 TD 25 1007 -1 14 267
1992175N12269 1992 42 EP MM CELIA 1992-06-22 15:00:00 TS 11.4679 -92.1900 main 285 285 P_____________ EP041992 11.4679 -92.1900 TD 25 1006 -1 13 266
1992175N12269 1992 42 EP MM CELIA 1992-06-22 18:00:00 TS 11.4000 -92.8000 25 1006 hurdat_epa main 323 323 O_____________ hurdat_epa EP041992 11.4000 -92.8000 TD 25 1006 -1 11 260
1992175N12269 1992 42 EP MM CELIA 1992-06-22 21:00:00 TS 11.2848 -93.2801 main 363 363 P_____________ EP041992 11.2848 -93.2801 TD 27 1006 -1 9 257
1992175N12269 1992 42 EP MM CELIA 1992-06-23 00:00:00 TS 11.2000 -93.7000 30 1006 hurdat_epa main 394 394 O_____________ hurdat_epa EP041992 11.2000 -93.7000 TD 30 1006 -1 8 263
1992175N12269 1992 42 EP MM CELIA 1992-06-23 03:00:00 TS 11.1823 -94.1277 main 418 418 P_____________ EP041992 11.1823 -94.1277 TD 30 1005 -1 9 276
1992175N12269 1992 42 EP MM CELIA 1992-06-23 06:00:00 TS 11.3000 -94.6000 30 1005 hurdat_epa main 442 440 O_____________ hurdat_epa EP041992 11.3000 -94.6000 TD 30 1005 -1 11 294
1992175N12269 1992 42 EP MM CELIA 1992-06-23 09:00:00 TS 11.6350 -95.1697 main 459 412 P_____________ EP041992 11.6350 -95.1697 TD 30 1005 -1 14 301
1992175N12269 1992 42 EP MM CELIA 1992-06-23 12:00:00 TS 12.0000 -95.8000 30 1005 hurdat_epa main 412 381 O_____________ hurdat_epa EP041992 12.0000 -95.8000 TD 30 1005 -1 14 293
1992175N12269 1992 42 EP MM CELIA 1992-06-23 15:00:00 TS 12.1725 -96.4578 main 380 370 P_____________ EP041992 12.1725 -96.4578 TD 32 1004 -1 13 283
1992175N12269 1992 42 EP MM CELIA 1992-06-23 18:00:00 TS 12.3000 -97.1000 35 1003 hurdat_epa main 373 360 O_____________ hurdat_epa EP041992 12.3000 -97.1000 TS 35 1003 0 12 286
1992175N12269 1992 42 EP MM CELIA 1992-06-23 21:00:00 TS 12.5073 -97.6650 main 366 359 P_____________ EP041992 12.5073 -97.6650 TS 37 1002 0 11 290
1992175N12269 1992 42 EP MM CELIA 1992-06-24 00:00:00 TS 12.7000 -98.2000 40 1001 hurdat_epa main 367 364 O_____________ hurdat_epa EP041992 12.7000 -98.2000 TS 40 1001 0 11 286
1992175N12269 1992 42 EP MM CELIA 1992-06-24 03:00:00 TS 12.8225 -98.7651 main 374 366 P_____________ EP041992 12.8225 -98.7651 TS 42 1000 0 11 281
1992175N12269 1992 42 EP MM CELIA 1992-06-24 06:00:00 TS 12.9000 -99.3000 45 999 hurdat_epa main 382 382 O_____________ hurdat_epa EP041992 12.9000 -99.3000 TS 45 999 0 10 277
1992175N12269 1992 42 EP MM CELIA 1992-06-24 09:00:00 TS 12.9499 -99.7726 main 401 391 P_____________ EP041992 12.9499 -99.7726 TS 50 996 0 9 277
1992175N12269 1992 42 EP MM CELIA 1992-06-24 12:00:00 TS 13.0000 -100.200 55 994 hurdat_epa main 407 407 O_____________ hurdat_epa EP041992 13.0000 -100.200 TS 55 994 0 8 280
1992175N12269 1992 42 EP MM CELIA 1992-06-24 15:00:00 TS 13.0924 -100.608 main 414 409 P_____________ EP041992 13.0924 -100.608 TS 60 990 0 8 284
1992175N12269 1992 42 EP MM CELIA 1992-06-24 18:00:00 TS 13.2000 -101.000 65 987 hurdat_epa main 415 413 O_____________ hurdat_epa EP041992 13.2000 -101.000 HU 65 987 1 8 285
1992175N12269 1992 42 EP MM CELIA 1992-06-24 21:00:00 TS 13.2924 -101.393 main 422 422 P_____________ EP041992 13.2924 -101.393 HU 67 985 1 8 284
1992175N12269 1992 42 EP MM CELIA 1992-06-25 00:00:00 TS 13.4000 -101.800 70 983 hurdat_epa main 432 432 O_____________ hurdat_epa EP041992 13.4000 -101.800 HU 70 983 1 9 288
1992175N12269 1992 42 EP MM CELIA 1992-06-25 03:00:00 TS 13.5575 -102.242 main 430 429 P_____________ EP041992 13.5575 -102.242 HU 70 982 1 9 289
1992175N12269 1992 42 EP MM CELIA 1992-06-25 06:00:00 TS 13.7000 -102.700 70 981 hurdat_epa main 437 437 O_____________ hurdat_epa EP041992 13.7000 -102.700 HU 70 981 1 9 283
1992175N12269 1992 42 EP MM CELIA 1992-06-25 09:00:00 TS 13.7649 -103.150 main 451 451 P_____________ EP041992 13.7649 -103.150 HU 72 980 1 9 277
1992175N12269 1992 42 EP MM CELIA 1992-06-25 12:00:00 TS 13.8000 -103.600 75 979 hurdat_epa main 474 474 O_____________ hurdat_epa EP041992 13.8000 -103.600 HU 75 979 1 9 276
1992175N12269 1992 42 EP MM CELIA 1992-06-25 15:00:00 TS 13.8499 -104.043 main 493 486 P_____________ EP041992 13.8499 -104.043 HU 75 978 1 9 277
1992175N12269 1992 42 EP MM CELIA 1992-06-25 18:00:00 TS 13.9000 -104.500 75 978 hurdat_epa main 500 500 O_____________ hurdat_epa EP041992 13.9000 -104.500 HU 75 978 1 9 276
1992175N12269 1992 42 EP MM CELIA 1992-06-25 21:00:00 TS 13.9424 -104.993 main 517 510 P_____________ EP041992 13.9424 -104.993 HU 77 977 1 10 276
1992175N12269 1992 42 EP MM CELIA 1992-06-26 00:00:00 TS 14.0000 -105.500 80 976 hurdat_epa main 526 526 O_____________ hurdat_epa EP041992 14.0000 -105.500 HU 80 976 1 10 279
1992175N12269 1992 42 EP MM CELIA 1992-06-26 03:00:00 TS 14.0999 -106.007 main 540 540 P_____________ EP041992 14.0999 -106.007 HU 82 974 1 10 282
1992175N12269 1992 42 EP MM CELIA 1992-06-26 06:00:00 TS 14.2000 -106.500 85 973 hurdat_epa main 559 559 O_____________ hurdat_epa EP041992 14.2000 -106.500 HU 85 973 2 9 280
1992175N12269 1992 42 EP MM CELIA 1992-06-26 09:00:00 TS 14.2573 -106.943 main 576 576 P_____________ EP041992 14.2573 -106.943 HU 87 971 2 9 277
1992175N12269 1992 42 EP MM CELIA 1992-06-26 12:00:00 TS 14.3000 -107.400 90 970 hurdat_epa main 611 611 O_____________ hurdat_epa EP041992 14.3000 -107.400 HU 90 970 2 10 276
1992175N12269 1992 42 EP MM CELIA 1992-06-26 15:00:00 TS 14.3500 -107.935 main 640 636 P_____________ EP041992 14.3500 -107.935 HU 95 965 2 11 275
1992175N12269 1992 42 EP MM CELIA 1992-06-26 18:00:00 TS 14.4000 -108.500 100 960 hurdat_epa main 666 666 O_____________ hurdat_epa EP041992 14.4000 -108.500 HU 100 960 3 11 275
1992175N12269 1992 42 EP MM CELIA 1992-06-26 21:00:00 TS 14.4424 -109.050 main 705 697 P_____________ EP041992 14.4424 -109.050 HU 107 954 3 11 275
1992175N12269 1992 42 EP MM CELIA 1992-06-27 00:00:00 TS 14.5000 -109.600 115 948 hurdat_epa main 733 733 O_____________ hurdat_epa EP041992 14.5000 -109.600 HU 115 948 4 11 278
1992175N12269 1992 42 EP MM CELIA 1992-06-27 03:00:00 TS 14.5924 -110.157 main 770 770 P_____________ EP041992 14.5924 -110.157 HU 120 942 4 11 281
1992175N12269 1992 42 EP MM CELIA 1992-06-27 06:00:00 TS 14.7000 -110.700 125 936 hurdat_epa main 801 801 O_____________ hurdat_epa EP041992 14.7000 -110.700 HU 125 936 4 10 281
1992175N12269 1992 42 EP MM CELIA 1992-06-27 09:00:00 TS 14.7923 -111.208 main 832 832 P_____________ EP041992 14.7923 -111.208 HU 125 935 4 10 282
1992175N12269 1992 42 EP MM CELIA 1992-06-27 12:00:00 TS 14.9000 -111.700 125 935 hurdat_epa main 866 866 O_____________ hurdat_epa EP041992 14.9000 -111.700 HU 125 935 4 10 285
1992175N12269 1992 42 EP MM CELIA 1992-06-27 15:00:00 TS 15.0424 -112.207 main 901 894 P_____________ EP041992 15.0424 -112.208 HU 125 935 4 10 287
1992175N12269 1992 42 EP MM CELIA 1992-06-27 18:00:00 TS 15.2000 -112.700 125 936 hurdat_epa main 906 903 O_____________ hurdat_epa EP041992 15.2000 -112.700 HU 125 936 4 10 289
1992175N12269 1992 42 EP MM CELIA 1992-06-27 21:00:00 TS 15.3499 -113.158 main 914 903 P_____________ EP041992 15.3499 -113.158 HU 122 937 4 9 289
1992175N12269 1992 42 EP MM CELIA 1992-06-28 00:00:00 TS 15.5000 -113.600 120 939 hurdat_epa main 909 908 O_____________ hurdat_epa EP041992 15.5000 -113.600 HU 120 939 4 9 289
1992175N12269 1992 42 EP MM CELIA 1992-06-28 03:00:00 TS 15.6499 -114.043 main 918 912 P_____________ EP041992 15.6499 -114.043 HU 120 940 4 9 289
1992175N12269 1992 42 EP MM CELIA 1992-06-28 06:00:00 TS 15.8000 -114.500 120 942 hurdat_epa main 923 923 O_____________ hurdat_epa EP041992 15.8000 -114.500 HU 120 942 4 10 288
1992175N12269 1992 42 EP MM CELIA 1992-06-28 09:00:00 TS 15.9425 -115.000 main 942 932 P_____________ EP041992 15.9425 -115.000 HU 117 945 4 10 287
1992175N12269 1992 42 EP MM CELIA 1992-06-28 12:00:00 TS 16.1000 -115.500 115 948 hurdat_epa main 954 954 O_____________ hurdat_epa EP041992 16.1000 -115.500 HU 115 948 4 10 291
1992175N12269 1992 42 EP MM CELIA 1992-06-28 15:00:00 TS 16.2848 -115.943 main 962 962 P_____________ EP041992 16.2848 -115.943 HU 112 950 3 10 295
1992175N12269 1992 42 EP MM CELIA 1992-06-28 18:00:00 TS 16.5000 -116.400 110 952 hurdat_epa main 980 979 O_____________ hurdat_epa EP041992 16.5000 -116.400 HU 110 952 3 11 296
1992175N12269 1992 42 EP MM CELIA 1992-06-28 21:00:00 TS 16.7575 -116.942 main 992 992 P_____________ EP041992 16.7575 -116.942 HU 105 956 3 12 295
1992175N12269 1992 42 EP MM CELIA 1992-06-29 00:00:00 TS 17.0000 -117.500 100 960 hurdat_epa main 1024 1023 O_____________ hurdat_epa EP041992 17.0000 -117.500 HU 100 960 3 11 293
1992175N12269 1992 42 EP MM CELIA 1992-06-29 03:00:00 TS 17.1798 -118.008 main 1038 1038 P_____________ EP041992 17.1798 -118.008 HU 95 962 2 10 287
1992175N12269 1992 42 EP MM CELIA 1992-06-29 06:00:00 TS 17.3000 -118.500 90 965 hurdat_epa main 1060 1060 O_____________ hurdat_epa EP041992 17.3000 -118.500 HU 90 965 2 10 281
1992175N12269 1992 42 EP MM CELIA 1992-06-29 09:00:00 TS 17.3724 -119.008 main 1085 1085 P_____________ EP041992 17.3724 -119.008 HU 85 970 2 10 276
1992175N12269 1992 42 EP MM CELIA 1992-06-29 12:00:00 TS 17.4000 -119.500 80 975 hurdat_epa main 1120 1120 O_____________ hurdat_epa EP041992 17.4000 -119.500 HU 80 975 1 9 273
1992175N12269 1992 42 EP MM CELIA 1992-06-29 15:00:00 TS 17.4149 -119.965 main 1156 1156 P_____________ EP041992 17.4149 -119.965 HU 77 977 1 9 270
1992175N12269 1992 42 EP MM CELIA 1992-06-29 18:00:00 TS 17.4000 -120.400 75 979 hurdat_epa main 1185 1185 O_____________ hurdat_epa EP041992 17.4000 -120.400 HU 75 979 1 8 264
1992175N12269 1992 42 EP MM CELIA 1992-06-29 21:00:00 TS 17.3348 -120.793 main 1223 1223 P_____________ EP041992 17.3348 -120.793 HU 77 977 1 8 263
1992175N12269 1992 42 EP MM CELIA 1992-06-30 00:00:00 TS 17.3000 -121.200 80 975 hurdat_epa main 1254 1254 O_____________ hurdat_epa EP041992 17.3000 -121.200 HU 80 975 1 9 273
1992175N12269 1992 42 EP MM CELIA 1992-06-30 03:00:00 TS 17.3850 -121.692 main 1285 1285 P_____________ EP041992 17.3850 -121.692 HU 85 973 2 10 282
1992175N12269 1992 42 EP MM CELIA 1992-06-30 06:00:00 TS 17.5000 -122.200 90 971 hurdat_epa main 1318 1318 O_____________ hurdat_epa EP041992 17.5000 -122.200 HU 90 971 2 10 282
1992175N12269 1992 42 EP MM CELIA 1992-06-30 09:00:00 TS 17.5874 -122.672 main 1352 1352 P_____________ EP041992 17.5874 -122.672 HU 90 970 2 9 277
1992175N12269 1992 42 EP MM CELIA 1992-06-30 12:00:00 TS 17.6000 -123.100 90 970 hurdat_epa main 1386 1386 O_____________ hurdat_epa EP041992 17.6000 -123.100 HU 90 970 2 8 260
1992175N12269 1992 42 EP MM CELIA 1992-06-30 15:00:00 TS 17.4573 -123.450 main 1426 1426 P_____________ EP041992 17.4573 -123.450 HU 87 971 2 7 246
1992175N12269 1992 42 EP MM CELIA 1992-06-30 18:00:00 TS 17.3000 -123.800 85 972 hurdat_epa main 1465 1465 O_____________ hurdat_epa EP041992 17.3000 -123.800 HU 85 972 2 8 257
1992175N12269 1992 42 EP MM CELIA 1992-06-30 21:00:00 TS 17.2776 -124.250 main 1495 1495 P_____________ EP041992 17.2776 -124.250 HU 82 973 1 9 270
1992175N12269 1992 42 EP MM CELIA 1992-07-01 00:00:00 TS 17.3000 -124.700 80 975 hurdat_epa main 1529 1529 O_____________ hurdat_epa EP041992 17.3000 -124.700 HU 80 975 1 8 271
1992175N12269 1992 42 EP MM CELIA 1992-07-01 03:00:00 TS 17.2924 -125.065 main 1556 1556 P_____________ EP041992 17.2924 -125.065 HU 77 976 1 7 270
1992175N12269 1992 42 EP MM CELIA 1992-07-01 06:00:00 TS 17.3000 -125.400 75 977 hurdat_epa main 1577 1577 O_____________ hurdat_epa EP041992 17.3000 -125.400 HU 75 977 1 6 275
1992175N12269 1992 42 EP MM CELIA 1992-07-01 09:00:00 TS 17.3499 -125.742 main 1597 1596 P_____________ EP041992 17.3499 -125.742 HU 72 978 1 7 279
1992175N12269 1992 42 EP MM CELIA 1992-07-01 12:00:00 TS 17.4000 -126.100 70 980 hurdat_epa main 1618 1618 O_____________ hurdat_epa EP041992 17.4000 -126.100 HU 70 980 1 7 275
1992175N12269 1992 42 EP MM CELIA 1992-07-01 15:00:00 TS 17.4150 -126.500 main 1647 1647 P_____________ EP041992 17.4150 -126.500 HU 67 982 1 8 270
1992175N12269 1992 42 EP MM CELIA 1992-07-01 18:00:00 TS 17.4000 -126.900 65 984 hurdat_epa main 1676 1676 O_____________ hurdat_epa EP041992 17.4000 -126.900 HU 65 984 1 7 265
1992175N12269 1992 42 EP MM CELIA 1992-07-01 21:00:00 TS 17.3574 -127.265 main 1706 1706 P_____________ EP041992 17.3574 -127.265 HU 62 986 0 7 261
1992175N12269 1992 42 EP MM CELIA 1992-07-02 00:00:00 TS 17.3000 -127.600 60 989 hurdat_epa main 1737 1737 O_____________ hurdat_epa EP041992 17.3000 -127.600 TS 60 989 0 6 259
1992175N12269 1992 42 EP MM CELIA 1992-07-02 03:00:00 TS 17.2424 -127.908 main 1767 1767 P_____________ EP041992 17.2424 -127.908 TS 55 991 0 6 260
1992175N12269 1992 42 EP MM CELIA 1992-07-02 06:00:00 TS 17.2000 -128.200 50 994 hurdat_epa main 1790 1790 O_____________ hurdat_epa EP041992 17.2000 -128.200 TS 50 994 0 6 263
1992175N12269 1992 42 EP MM CELIA 1992-07-02 09:00:00 TS 17.1700 -128.500 main 1814 1814 P_____________ EP041992 17.1700 -128.500 TS 45 997 0 6 270
1992175N12269 1992 42 EP MM CELIA 1992-07-02 12:00:00 TS 17.2000 -128.800 40 1000 hurdat_epa main 1837 1837 O_____________ hurdat_epa EP041992 17.2000 -128.800 TS 40 1000 0 6 287
1992175N12269 1992 42 EP MM CELIA 1992-07-02 15:00:00 TS 17.3425 -129.100 main 1854 1846 P_____________ EP041992 17.3425 -129.100 TS 37 1002 0 6 298
1992175N12269 1992 42 EP MM CELIA 1992-07-02 18:00:00 TS 17.5000 -129.400 35 1004 hurdat_epa main 1863 1863 O_____________ hurdat_epa EP041992 17.5000 -129.400 TS 35 1004 0 6 290
1992175N12269 1992 42 EP MM CELIA 1992-07-02 21:00:00 TS 17.5575 -129.708 main 1880 1880 P_____________ EP041992 17.5575 -129.708 TS 32 1004 -1 6 280
1992175N12269 1992 42 EP MM CELIA 1992-07-03 00:00:00 TS 17.6000 -130.000 30 1005 hurdat_epa main 1905 1905 O_____________ hurdat_epa EP041992 17.6000 -130.000 TD 30 1005 -1 5 284
1992175N12269 1992 42 EP MM CELIA 1992-07-03 03:00:00 TS 17.6850 -130.265 main 1923 1923 P_____________ EP041992 17.6850 -130.265 TD 30 1005 -1 5 293
1992175N12269 1992 42 EP MM CELIA 1992-07-03 06:00:00 TS 17.8000 -130.500 30 1005 hurdat_epa main 1933 1933 O_____________ hurdat_epa EP041992 17.8000 -130.500 TD 30 1005 -1 5 299
1992175N12269 1992 42 EP MM CELIA 1992-07-03 09:00:00 TS 17.9275 -130.715 main 1943 1936 P_____________ EP041992 17.9275 -130.715 TD 27 1005 -1 5 308
1992175N12269 1992 42 EP MM CELIA 1992-07-03 12:00:00 TS 18.1000 -130.900 25 1006 hurdat_epa main 1946 1940 O_____________ hurdat_epa EP041992 18.1000 -130.900 TD 25 1006 -1 5 322
1992175N12269 1992 42 EP MM CELIA 1992-07-03 15:00:00 TS 18.3274 -131.043 main 1942 1937 P_____________ EP041992 18.3274 -131.043 TD 25 1006 -1 6 330
1992175N12269 1992 42 EP MM CELIA 1992-07-03 18:00:00 TS 18.6000 -131.200 25 1006 hurdat_epa main 1939 1933 O_____________ hurdat_epa EP041992 18.6000 -131.200 TD 25 1006 -1 7 328
1992175N12269 1992 42 EP MM CELIA 1992-07-03 21:00:00 TS 18.9000 -131.427 main 1938 1938 P_____________ EP041992 18.9000 -131.427 TD 25 1006 -1 8 322
1992175N12269 1992 42 EP MM CELIA 1992-07-04 00:00:00 TS 19.2000 -131.700 25 1007 hurdat_epa main 1946 1946 O_____________ hurdat_epa EP041992 19.2000 -131.700 TD 25 1007 -1 8 317
1992175N12269 1992 42 EP MM CELIA 1992-07-04 03:00:00 TS 19.4650 -131.993 main 1955 1955 P_____________ EP041992 19.4650 -131.993 TD 25 1007 -1 8 311
1992175N12269 1992 42 EP MM CELIA 1992-07-04 06:00:00 TS 19.7000 -132.300 25 1008 hurdat_epa main 1971 1971 O_____________ hurdat_epa EP041992 19.7000 -132.300 TD 25 1008 -1 7 309
1992175N12269 1992 42 EP MM CELIA 1992-07-04 09:00:00 TS 19.9224 -132.593 main 1987 1982 P_____________ EP041992 19.9224 -132.593 TD 25 1008 -1 7 305
1992175N12269 1992 42 EP MM CELIA 1992-07-04 12:00:00 TS 20.1000 -132.900 25 1009 hurdat_epa main 2004 2004 O_____________ hurdat_epa EP041992 20.1000 -132.900 TD 25 1009 -1 7 296
1992175N12269 1992 42 EP MM CELIA 1992-07-04 15:00:00 TS 20.2177 -133.240 main 2017 2017 P_____________ EP041992 20.2177 -133.240 TD 22 1009 -1 7 287
1992175N12269 1992 42 EP MM CELIA 1992-07-04 18:00:00 TS 20.3000 -133.600 20 1010 hurdat_epa main 2032 O_____________ hurdat_epa EP041992 20.3000 -133.600 TD 20 1010 -1 7 284

IBTrACS Databaseについて

本データベースは、米国NOAAが公開する1842年以降の世界の熱帯低気圧のベストトラックデータアーカイブInternational Best Track Archive for Climate Stewardship (IBTrACS)を、ウェブで閲覧しやすい形式に変換したものです。

最終更新日:2021-10-21